createdAt,value
2023-04-06T00:01:48.059Z,97597.81
2023-04-06T00:04:15.771Z,97598.88
2023-04-06T00:06:43.276Z,97600.72
2023-04-06T00:09:10.850Z,97592.91
2023-04-06T00:11:38.229Z,97594.88
2023-04-06T00:14:05.738Z,97588.97
2023-04-06T00:16:33.175Z,97593.38
2023-04-06T00:19:00.599Z,97590.84
2023-04-06T00:21:28.297Z,97590.22
2023-04-06T00:23:56.106Z,97584.47
2023-04-06T00:26:23.431Z,97592.84
2023-04-06T00:28:53.136Z,97588.72
2023-04-06T00:31:20.487Z,97588.03
2023-04-06T00:33:49.427Z,97582.09
2023-04-06T00:36:16.832Z,97581.72
2023-04-06T00:38:44.326Z,97574.31
2023-04-06T00:41:11.766Z,97578.94
2023-04-06T00:43:39.088Z,97581.16
2023-04-06T00:46:07.029Z,97580.97
2023-04-06T00:48:34.615Z,97577.66
2023-04-06T00:51:02.772Z,97584.31
2023-04-06T00:53:30.408Z,97574.13
2023-04-06T00:55:59.391Z,97573.28
2023-04-06T00:58:27.136Z,97581.00
2023-04-06T01:01:02.646Z,97574.41
2023-04-06T01:03:30.135Z,97580.19
2023-04-06T01:05:59.393Z,97576.47
2023-04-06T01:08:33.198Z,97577.13
2023-04-06T01:11:13.452Z,97580.25
2023-04-06T01:13:41.101Z,97578.44
2023-04-06T01:16:16.607Z,97571.06
2023-04-06T01:19:13.096Z,97576.50
2023-04-06T01:21:45.096Z,97571.06
2023-04-06T01:24:30.685Z,97567.53
2023-04-06T01:27:11.690Z,97572.56
2023-04-06T01:29:48.057Z,97566.06
2023-04-06T01:32:22.585Z,97570.28
2023-04-06T01:34:52.255Z,97570.47
2023-04-06T01:37:19.778Z,97564.41
2023-04-06T01:39:47.595Z,97567.34
2023-04-06T01:42:24.150Z,97568.00
2023-04-06T01:44:52.006Z,97565.41
2023-04-06T01:47:19.399Z,97570.59
2023-04-06T01:49:47.469Z,97564.41
2023-04-06T01:52:16.800Z,97566.22
2023-04-06T01:54:51.712Z,97559.63
2023-04-06T01:57:36.041Z,97562.81
2023-04-06T02:00:15.529Z,97554.63
2023-04-06T02:02:47.487Z,97568.16
2023-04-06T02:05:21.948Z,97560.56
2023-04-06T02:07:51.326Z,97565.81
2023-04-06T02:10:23.159Z,97564.44
2023-04-06T02:12:50.708Z,97565.63
2023-04-06T02:15:24.244Z,97560.38
2023-04-06T02:17:52.658Z,97560.56
2023-04-06T02:20:20.163Z,97567.81
2023-04-06T02:22:47.611Z,97559.38
2023-04-06T02:25:15.110Z,97559.44
2023-04-06T02:27:42.608Z,97556.72
2023-04-06T02:30:10.847Z,97563.44
2023-04-06T02:32:38.278Z,97562.94
2023-04-06T02:35:06.125Z,97552.78
2023-04-06T02:37:35.440Z,97554.72
2023-04-06T02:40:02.731Z,97556.50
2023-04-06T02:42:31.828Z,97550.53
2023-04-06T02:44:59.206Z,97551.47
2023-04-06T02:47:31.141Z,97559.53
2023-04-06T02:49:58.474Z,97549.41
2023-04-06T02:52:26.156Z,97556.41
2023-04-06T02:54:53.482Z,97564.34
2023-04-06T02:57:26.752Z,97562.75
2023-04-06T02:59:54.302Z,97568.34
2023-04-06T03:02:28.926Z,97566.88
2023-04-06T03:05:05.629Z,97558.97
2023-04-06T03:07:37.687Z,97551.19
2023-04-06T03:10:06.328Z,97560.94
2023-04-06T03:12:34.019Z,97554.84
2023-04-06T03:15:18.092Z,97549.84
2023-04-06T03:17:50.930Z,97551.94
2023-04-06T03:20:43.708Z,97559.47
2023-04-06T03:23:11.795Z,97563.28
2023-04-06T03:25:42.510Z,97568.47
2023-04-06T03:28:14.338Z,97568.38
2023-04-06T03:30:50.902Z,97563.47
2023-04-06T03:33:24.566Z,97567.63
2023-04-06T03:35:55.974Z,97570.06
2023-04-06T03:38:26.304Z,97565.75
2023-04-06T03:40:54.680Z,97569.94
2023-04-06T03:43:26.014Z,97575.50
2023-04-06T03:45:53.396Z,97568.97
2023-04-06T03:48:21.250Z,97563.97
2023-04-06T03:50:48.783Z,97564.50
2023-04-06T03:53:16.328Z,97574.59
2023-04-06T03:55:43.521Z,97575.00
2023-04-06T03:58:11.022Z,97575.41
2023-04-06T04:00:38.876Z,97566.84
2023-04-06T04:03:06.585Z,97576.94
2023-04-06T04:05:33.938Z,97576.78
2023-04-06T04:08:01.421Z,97576.06
2023-04-06T04:10:28.742Z,97581.44
2023-04-06T04:12:56.194Z,97583.22
2023-04-06T04:15:24.031Z,97579.63
2023-04-06T04:17:51.760Z,97593.97
2023-04-06T04:20:19.290Z,97586.81
2023-04-06T04:22:46.614Z,97590.03
2023-04-06T04:25:15.675Z,97579.50
2023-04-06T04:27:47.821Z,97581.28
2023-04-06T04:30:16.457Z,97581.91
2023-04-06T04:32:43.847Z,97580.75
2023-04-06T04:35:12.370Z,97581.72
2023-04-06T04:37:42.646Z,97587.53
2023-04-06T04:40:11.796Z,97590.00
2023-04-06T04:42:53.412Z,97583.47
2023-04-06T04:45:27.368Z,97583.38
2023-04-06T04:47:54.822Z,97585.69
2023-04-06T04:50:25.212Z,97588.53
2023-04-06T04:52:56.766Z,97593.78
2023-04-06T04:55:27.131Z,97595.66
2023-04-06T04:57:58.087Z,97596.53
2023-04-06T05:00:43.221Z,97589.38
2023-04-06T05:03:24.334Z,97595.66
2023-04-06T05:06:07.310Z,97594.84
2023-04-06T05:08:37.922Z,97600.31
2023-04-06T05:11:06.078Z,97598.22
2023-04-06T05:13:37.987Z,97597.16
2023-04-06T05:16:11.973Z,97589.47
2023-04-06T05:18:39.506Z,97603.81
2023-04-06T05:21:07.685Z,97601.22
2023-04-06T05:23:48.543Z,97601.00
2023-04-06T05:26:15.963Z,97603.31
2023-04-06T05:28:45.406Z,97605.69
2023-04-06T05:31:13.790Z,97605.28
2023-04-06T05:33:47.428Z,97604.88
2023-04-06T05:36:17.298Z,97597.41
2023-04-06T05:38:47.170Z,97594.81
2023-04-06T05:41:34.773Z,97595.03
2023-04-06T05:44:02.400Z,97594.84
2023-04-06T05:46:31.146Z,97593.44
2023-04-06T05:49:00.221Z,97592.59
2023-04-06T05:51:31.369Z,97595.72
2023-04-06T05:53:59.122Z,97596.78
2023-04-06T05:56:27.382Z,97600.53
2023-04-06T05:58:54.969Z,97596.34
2023-04-06T06:01:27.851Z,97596.72
2023-04-06T06:03:55.252Z,97596.66
2023-04-06T06:06:27.119Z,97594.00
2023-04-06T06:09:07.704Z,97592.81
2023-04-06T06:11:41.711Z,97594.59
2023-04-06T06:14:10.170Z,97580.97
2023-04-06T06:16:39.960Z,97594.88
2023-04-06T06:19:09.038Z,97600.44
2023-04-06T06:21:37.624Z,97599.31
2023-04-06T06:24:08.011Z,97604.16
2023-04-06T06:26:38.153Z,97598.44
2023-04-06T06:29:08.619Z,97596.59
2023-04-06T06:31:39.055Z,97594.69
2023-04-06T06:34:06.527Z,97595.63
2023-04-06T06:36:36.442Z,97600.19
2023-04-06T06:39:07.386Z,97606.00
2023-04-06T06:41:35.500Z,97595.91
2023-04-06T06:44:03.452Z,97594.72
2023-04-06T06:46:31.026Z,97598.56
2023-04-06T06:48:59.884Z,97602.47
2023-04-06T06:51:27.388Z,97604.00
2023-04-06T06:53:54.816Z,97605.88
2023-04-06T06:56:23.222Z,97603.34
2023-04-06T06:58:52.631Z,97607.00
2023-04-06T07:01:20.486Z,97605.16
2023-04-06T07:03:48.040Z,97608.81
2023-04-06T07:06:15.393Z,97610.31
2023-04-06T07:08:42.768Z,97609.25
2023-04-06T07:11:10.278Z,97612.88
2023-04-06T07:13:37.653Z,97610.03
2023-04-06T07:16:05.565Z,97610.91
2023-04-06T07:18:35.645Z,97624.22
2023-04-06T07:21:03.909Z,97622.09
2023-04-06T07:23:31.307Z,97621.78
2023-04-06T07:25:58.672Z,97618.53
2023-04-06T07:28:26.101Z,97618.56
2023-04-06T07:30:55.442Z,97621.00
2023-04-06T07:33:23.466Z,97628.28
2023-04-06T07:35:52.683Z,97630.41
2023-04-06T07:38:20.368Z,97633.56
2023-04-06T07:40:47.780Z,97627.81
2023-04-06T07:43:15.309Z,97634.09
2023-04-06T07:45:43.139Z,97630.53
2023-04-06T07:48:11.475Z,97628.56
2023-04-06T07:50:39.721Z,97630.00
2023-04-06T07:53:07.727Z,97626.78
2023-04-06T07:55:35.948Z,97624.47
2023-04-06T07:58:03.311Z,97618.91
2023-04-06T08:00:32.569Z,97613.22
2023-04-06T08:03:00.197Z,97611.63
2023-04-06T08:05:27.774Z,97619.00
2023-04-06T08:07:55.202Z,97618.06
2023-04-06T08:10:22.539Z,97618.84
2023-04-06T08:12:49.813Z,97626.97
2023-04-06T08:15:19.219Z,97625.97
2023-04-06T08:17:46.730Z,97618.66
2023-04-06T08:20:14.071Z,97628.09
2023-04-06T08:22:41.377Z,97626.44
2023-04-06T08:25:09.092Z,97613.81
2023-04-06T08:27:36.529Z,97621.69
2023-04-06T08:30:04.306Z,97616.31
2023-04-06T08:32:32.029Z,97621.06
2023-04-06T08:34:59.389Z,97623.97
2023-04-06T08:37:26.886Z,97624.22
2023-04-06T08:39:54.261Z,97627.88
2023-04-06T08:42:23.642Z,97626.03
2023-04-06T08:44:53.500Z,97619.44
2023-04-06T08:47:24.067Z,97622.53
2023-04-06T08:49:54.853Z,97616.88
2023-04-06T08:52:22.263Z,97612.50
2023-04-06T08:54:49.750Z,97625.72
2023-04-06T08:57:17.822Z,97622.25
2023-04-06T08:59:46.221Z,97623.66
2023-04-06T09:02:19.600Z,97610.28
2023-04-06T09:04:49.861Z,97612.31
2023-04-06T09:07:17.825Z,97623.88
2023-04-06T09:09:48.813Z,97624.81
2023-04-06T09:12:31.294Z,97614.34
2023-04-06T09:14:59.852Z,97609.81
2023-04-06T09:17:34.889Z,97604.63
2023-04-06T09:20:04.174Z,97601.53
2023-04-06T09:22:43.064Z,97603.13
2023-04-06T09:25:19.100Z,97608.03
2023-04-06T09:27:46.533Z,97602.53
2023-04-06T09:30:17.840Z,97589.91
2023-04-06T09:32:53.396Z,97590.44
2023-04-06T09:35:22.129Z,97579.56
2023-04-06T09:37:52.907Z,97574.97
2023-04-06T09:40:22.156Z,97576.78
2023-04-06T09:42:53.055Z,97575.91
2023-04-06T09:45:21.913Z,97582.41
2023-04-06T09:47:52.462Z,97572.88
2023-04-06T09:50:20.900Z,97580.78
2023-04-06T09:52:52.324Z,97571.06
2023-04-06T09:55:31.629Z,97570.97
2023-04-06T09:58:20.262Z,97566.09
2023-04-06T10:01:18.425Z,97561.81
2023-04-06T10:04:13.547Z,97560.34
2023-04-06T10:06:41.990Z,97561.94
2023-04-06T10:09:10.372Z,97567.75
2023-04-06T10:11:38.177Z,97555.81
2023-04-06T10:14:06.604Z,97557.59
2023-04-06T10:16:34.286Z,97550.50
2023-04-06T10:19:32.716Z,97551.44
2023-04-06T10:22:03.839Z,97547.16
2023-04-06T10:24:31.328Z,97560.84
2023-04-06T10:27:07.417Z,97551.03
2023-04-06T10:29:49.935Z,97544.25
2023-04-06T10:32:17.582Z,97541.97
2023-04-06T10:34:44.910Z,97533.94
2023-04-06T10:37:16.961Z,97540.28
2023-04-06T10:39:59.355Z,97535.41
2023-04-06T10:42:38.502Z,97531.25
2023-04-06T10:45:21.639Z,97533.81
2023-04-06T10:47:49.425Z,97535.63
2023-04-06T10:50:18.230Z,97526.78
2023-04-06T10:52:47.623Z,97524.50
2023-04-06T10:55:16.079Z,97522.16
2023-04-06T10:57:43.585Z,97527.59
2023-04-06T11:00:13.968Z,97520.41
2023-04-06T11:02:41.774Z,97524.97
2023-04-06T11:05:09.740Z,97516.53
2023-04-06T11:07:37.132Z,97521.28
2023-04-06T11:10:15.594Z,97531.94
2023-04-06T11:12:45.933Z,97525.53
2023-04-06T11:15:13.222Z,97529.16
2023-04-06T11:17:40.912Z,97517.69
2023-04-06T11:20:12.379Z,97531.56
2023-04-06T11:22:53.626Z,97532.25
2023-04-06T11:25:21.059Z,97521.25
2023-04-06T11:27:49.393Z,97512.69
2023-04-06T11:30:16.878Z,97516.09
2023-04-06T11:32:46.845Z,97514.34
2023-04-06T11:35:23.440Z,97509.72
2023-04-06T11:37:51.610Z,97510.22
2023-04-06T11:40:25.945Z,97507.00
2023-04-06T11:42:57.595Z,97507.75
2023-04-06T11:45:25.076Z,97501.72
2023-04-06T11:48:01.551Z,97501.09
2023-04-06T11:50:35.681Z,97500.13
2023-04-06T11:53:04.237Z,97494.06
2023-04-06T11:55:39.862Z,97490.44
2023-04-06T11:58:08.186Z,97490.28
2023-04-06T12:00:35.868Z,97486.41
2023-04-06T12:03:03.389Z,97484.41
2023-04-06T12:05:31.008Z,97481.81
2023-04-06T12:08:01.079Z,97480.06
2023-04-06T12:10:30.813Z,97481.06
2023-04-06T12:12:58.206Z,97480.47
2023-04-06T12:15:25.522Z,97476.63
2023-04-06T12:17:53.350Z,97485.44
2023-04-06T12:20:26.549Z,97475.97
2023-04-06T12:22:54.757Z,97484.28
2023-04-06T12:25:22.186Z,97475.50
2023-04-06T12:27:49.607Z,97483.28
2023-04-06T12:30:17.252Z,97474.34
2023-04-06T12:32:44.829Z,97471.72
2023-04-06T12:35:14.128Z,97468.28
2023-04-06T12:37:41.851Z,97473.28
2023-04-06T12:40:11.638Z,97466.84
2023-04-06T12:42:42.435Z,97464.41
2023-04-06T12:45:10.740Z,97470.03
2023-04-06T12:47:38.844Z,97468.31
2023-04-06T12:50:07.656Z,97461.66
2023-04-06T12:52:36.629Z,97457.69
2023-04-06T12:55:06.099Z,97451.72
2023-04-06T12:57:33.504Z,97449.91
2023-04-06T13:00:01.301Z,97446.59
2023-04-06T13:02:28.971Z,97448.00
2023-04-06T13:04:56.459Z,97444.34
2023-04-06T13:07:24.016Z,97451.88
2023-04-06T13:09:52.359Z,97443.69
2023-04-06T13:12:20.019Z,97446.38
2023-04-06T13:14:51.937Z,97436.56
2023-04-06T13:17:19.334Z,97436.13
2023-04-06T13:19:46.667Z,97443.75
2023-04-06T13:22:13.957Z,97448.84
2023-04-06T13:24:41.230Z,97449.50
2023-04-06T13:27:08.550Z,97441.56
2023-04-06T13:29:36.027Z,97444.44
2023-04-06T13:32:03.395Z,97441.75
2023-04-06T13:34:30.738Z,97436.63
2023-04-06T13:36:58.112Z,97439.28
2023-04-06T13:39:25.544Z,97441.34
2023-04-06T13:41:57.237Z,97436.00
2023-04-06T13:44:24.722Z,97438.34
2023-04-06T13:46:52.198Z,97439.28
2023-04-06T13:49:19.729Z,97438.22
2023-04-06T13:51:47.132Z,97444.38
2023-04-06T13:54:14.402Z,97439.41
2023-04-06T13:56:41.744Z,97441.41
2023-04-06T13:59:08.988Z,97439.41
2023-04-06T14:01:36.484Z,97440.31
2023-04-06T14:04:04.017Z,97444.25
2023-04-06T14:06:32.297Z,97438.25
2023-04-06T14:09:00.317Z,97439.09
2023-04-06T14:11:27.953Z,97438.34
2023-04-06T14:13:57.799Z,97437.78
2023-04-06T14:16:26.110Z,97433.84
2023-04-06T14:18:53.420Z,97435.72
2023-04-06T14:21:21.079Z,97437.22
2023-04-06T14:23:48.346Z,97427.91
2023-04-06T14:26:16.357Z,97432.09
2023-04-06T14:28:43.941Z,97434.50
2023-04-06T14:31:14.663Z,97431.50
2023-04-06T14:33:43.443Z,97430.94
2023-04-06T14:36:11.938Z,97437.53
2023-04-06T14:38:40.495Z,97426.41
2023-04-06T14:41:09.212Z,97433.94
2023-04-06T14:43:36.468Z,97431.56
2023-04-06T14:46:04.044Z,97432.72
2023-04-06T14:48:31.422Z,97436.34
2023-04-06T14:50:59.081Z,97438.00
2023-04-06T14:53:27.189Z,97439.09
2023-04-06T14:55:54.983Z,97436.34
2023-04-06T14:58:24.109Z,97442.03
2023-04-06T15:01:01.164Z,97428.94
2023-04-06T15:03:30.499Z,97432.19
2023-04-06T15:05:58.663Z,97436.16
2023-04-06T15:08:26.438Z,97430.66
2023-04-06T15:10:55.746Z,97437.72
2023-04-06T15:13:23.229Z,97439.13
2023-04-06T15:15:52.664Z,97435.34
2023-04-06T15:18:21.085Z,97432.16
2023-04-06T15:20:48.803Z,97433.06
2023-04-06T15:23:16.200Z,97432.28
2023-04-06T15:25:43.552Z,97431.97
2023-04-06T15:28:11.156Z,97433.56
2023-04-06T15:30:38.921Z,97435.94
2023-04-06T15:33:09.479Z,97432.53
2023-04-06T15:35:41.114Z,97437.19
2023-04-06T15:38:10.092Z,97433.97
2023-04-06T15:40:48.402Z,97433.44
2023-04-06T15:43:16.666Z,97432.41
2023-04-06T15:45:43.965Z,97438.78
2023-04-06T15:48:11.355Z,97427.97
2023-04-06T15:50:38.797Z,97428.88
2023-04-06T15:53:06.184Z,97437.41
2023-04-06T15:55:33.640Z,97436.84
2023-04-06T15:58:01.105Z,97430.56
2023-04-06T16:00:28.958Z,97441.59
2023-04-06T16:02:57.309Z,97439.19
2023-04-06T16:05:25.733Z,97445.44
2023-04-06T16:07:55.020Z,97446.31
2023-04-06T16:10:22.309Z,97446.06
2023-04-06T16:12:49.581Z,97448.50
2023-04-06T16:15:17.232Z,97441.22
2023-04-06T16:17:44.597Z,97447.31
2023-04-06T16:20:12.950Z,97446.25
2023-04-06T16:22:41.143Z,97443.88
2023-04-06T16:25:09.289Z,97441.16
2023-04-06T16:27:36.758Z,97447.38
2023-04-06T16:30:05.022Z,97446.63
2023-04-06T16:32:32.365Z,97442.13
2023-04-06T16:34:59.675Z,97451.03
2023-04-06T16:37:29.729Z,97449.97
2023-04-06T16:39:57.520Z,97450.84
2023-04-06T16:42:25.301Z,97455.19
2023-04-06T16:44:52.787Z,97456.66
2023-04-06T16:47:20.746Z,97452.16
2023-04-06T16:49:47.960Z,97451.63
2023-04-06T16:52:15.236Z,97451.50
2023-04-06T16:54:42.366Z,97450.34
2023-04-06T16:57:09.756Z,97447.78
2023-04-06T16:59:37.262Z,97450.34
2023-04-06T17:02:04.525Z,97453.66
2023-04-06T17:04:31.870Z,97440.31
2023-04-06T17:06:59.186Z,97445.94
2023-04-06T17:09:26.608Z,97441.34
2023-04-06T17:11:53.827Z,97444.72
2023-04-06T17:14:21.198Z,97445.03
2023-04-06T17:16:48.704Z,97444.34
2023-04-06T17:19:16.215Z,97444.41
2023-04-06T17:21:43.434Z,97444.50
2023-04-06T17:24:10.932Z,97440.63
2023-04-06T17:26:38.266Z,97448.00
2023-04-06T17:29:05.549Z,97444.50
2023-04-06T17:31:33.060Z,97446.63
2023-04-06T17:34:00.862Z,97458.53
2023-04-06T17:36:28.572Z,97450.66
2023-04-06T17:38:55.977Z,97460.38
2023-04-06T17:41:24.202Z,97456.84
2023-04-06T17:43:51.613Z,97453.97
2023-04-06T17:46:20.659Z,97462.16
2023-04-06T17:48:48.660Z,97464.53
2023-04-06T17:51:18.873Z,97457.75
2023-04-06T17:53:46.901Z,97464.88
2023-04-06T17:56:14.497Z,97459.97
2023-04-06T17:58:42.072Z,97459.38
2023-04-06T18:01:13.024Z,97462.31
2023-04-06T18:03:40.415Z,97460.66
2023-04-06T18:06:16.180Z,97467.88
2023-04-06T18:08:43.762Z,97470.41
2023-04-06T18:11:21.702Z,97468.09
2023-04-06T18:13:49.696Z,97463.28
2023-04-06T18:16:17.746Z,97458.56
2023-04-06T18:18:45.413Z,97462.72
2023-04-06T18:21:12.675Z,97464.31
2023-04-06T18:23:40.065Z,97459.97
2023-04-06T18:26:07.657Z,97461.91
2023-04-06T18:28:35.007Z,97460.81
2023-04-06T18:31:02.554Z,97470.41
2023-04-06T18:33:30.099Z,97463.00
2023-04-06T18:35:57.336Z,97457.94
2023-04-06T18:38:24.636Z,97462.53
2023-04-06T18:40:52.645Z,97470.94
2023-04-06T18:43:19.909Z,97460.84
2023-04-06T18:45:47.750Z,97469.97
2023-04-06T18:48:15.030Z,97472.69
2023-04-06T18:50:55.576Z,97474.09
2023-04-06T18:53:22.750Z,97470.72
2023-04-06T18:55:51.626Z,97469.84
2023-04-06T18:58:19.451Z,97469.47
2023-04-06T19:00:46.849Z,97470.47
2023-04-06T19:03:14.282Z,97472.09
2023-04-06T19:05:42.424Z,97468.78
2023-04-06T19:08:10.499Z,97473.22
2023-04-06T19:10:38.719Z,97475.00
2023-04-06T19:13:06.163Z,97462.47
2023-04-06T19:15:33.606Z,97466.53
2023-04-06T19:18:00.961Z,97471.53
2023-04-06T19:20:28.210Z,97470.56
2023-04-06T19:25:28.329Z,97468.19
2023-04-06T19:27:56.746Z,97462.97
2023-04-06T19:30:24.387Z,97464.09
2023-04-06T19:32:51.714Z,97466.75
2023-04-06T19:35:19.232Z,97465.28
2023-04-06T19:37:46.590Z,97456.47
2023-04-06T19:40:13.881Z,97464.22
2023-04-06T19:42:41.160Z,97464.09
2023-04-06T19:45:09.094Z,97459.47
2023-04-06T19:47:36.801Z,97458.94
2023-04-06T19:50:06.002Z,97457.88
2023-04-06T19:52:33.874Z,97457.72
2023-04-06T19:55:01.180Z,97454.66
2023-04-06T19:57:28.664Z,97453.38
2023-04-06T19:59:56.520Z,97454.44
2023-04-06T20:02:23.819Z,97453.66
2023-04-06T20:04:51.336Z,97458.06
2023-04-06T20:07:18.657Z,97455.31
2023-04-06T20:09:45.960Z,97451.09
2023-04-06T20:12:13.265Z,97456.31
2023-04-06T20:14:40.496Z,97450.50
2023-04-06T20:17:07.793Z,97446.63
2023-04-06T20:19:35.108Z,97455.88
2023-04-06T20:22:03.801Z,97459.03
2023-04-06T20:24:31.654Z,97452.03
2023-04-06T20:26:59.460Z,97454.91
2023-04-06T20:29:27.417Z,97449.72
2023-04-06T20:31:54.834Z,97448.75
2023-04-06T20:34:25.972Z,97450.19
2023-04-06T20:36:53.775Z,97453.56
2023-04-06T20:39:21.773Z,97452.09
2023-04-06T20:41:49.231Z,97448.56
2023-04-06T20:44:16.938Z,97452.03
2023-04-06T20:46:45.816Z,97447.84
2023-04-06T20:49:13.310Z,97446.25
2023-04-06T20:51:42.595Z,97439.06
2023-04-06T20:54:09.811Z,97440.81
2023-04-06T20:56:37.140Z,97437.97
2023-04-06T20:59:07.507Z,97433.63
2023-04-06T21:01:34.799Z,97440.28
2023-04-06T21:04:04.246Z,97434.84
2023-04-06T21:06:32.460Z,97439.22
2023-04-06T21:09:01.284Z,97439.28
2023-04-06T21:11:28.571Z,97432.78
2023-04-06T21:13:56.657Z,97426.28
2023-04-06T21:16:23.882Z,97429.94
2023-04-06T21:18:51.902Z,97429.25
2023-04-06T21:21:19.082Z,97432.44
2023-04-06T21:23:46.438Z,97430.75
2023-04-06T21:26:13.784Z,97430.75
2023-04-06T21:28:41.003Z,97428.78
2023-04-06T21:31:09.663Z,97419.50
2023-04-06T21:33:36.924Z,97426.97
2023-04-06T21:36:08.603Z,97421.53
2023-04-06T21:38:35.899Z,97420.25
2023-04-06T21:41:03.508Z,97416.72
2023-04-06T21:43:30.927Z,97423.97
2023-04-06T21:45:58.146Z,97416.19
2023-04-06T21:48:25.434Z,97417.28
2023-04-06T21:50:52.839Z,97409.38
2023-04-06T21:53:20.251Z,97409.00
2023-04-06T21:55:48.156Z,97409.09
2023-04-06T21:58:15.959Z,97400.75
2023-04-06T22:00:43.461Z,97402.34
2023-04-06T22:03:11.238Z,97402.94
2023-04-06T22:05:38.644Z,97393.16
2023-04-06T22:08:05.943Z,97396.31
2023-04-06T22:10:33.232Z,97393.31
2023-04-06T22:13:00.492Z,97390.00
2023-04-06T22:15:27.704Z,97383.78
2023-04-06T22:17:55.066Z,97390.31
2023-04-06T22:20:22.291Z,97389.22
2023-04-06T22:22:50.094Z,97385.81
2023-04-06T22:25:17.353Z,97381.31
2023-04-06T22:27:44.815Z,97379.22
2023-04-06T22:30:12.411Z,97373.03
2023-04-06T22:32:39.742Z,97376.25
2023-04-06T22:35:08.132Z,97380.44
2023-04-06T22:37:35.476Z,97373.06
2023-04-06T22:40:02.886Z,97373.50
2023-04-06T22:42:30.148Z,97370.44
2023-04-06T22:44:57.293Z,97361.84
2023-04-06T22:47:24.601Z,97363.03
2023-04-06T22:49:51.964Z,97358.41
2023-04-06T22:52:19.202Z,97363.03
2023-04-06T22:54:46.594Z,97357.75
2023-04-06T22:57:13.906Z,97361.75
2023-04-06T22:59:41.318Z,97357.09
2023-04-06T23:02:08.969Z,97359.63
2023-04-06T23:04:36.375Z,97354.25
2023-04-06T23:07:03.556Z,97352.38
2023-04-06T23:09:31.231Z,97350.97
2023-04-06T23:11:58.447Z,97353.88
2023-04-06T23:14:25.665Z,97347.72
2023-04-06T23:16:52.879Z,97340.91
2023-04-06T23:19:20.195Z,97345.34
2023-04-06T23:21:47.532Z,97339.03
2023-04-06T23:24:14.761Z,97336.91
2023-04-06T23:26:41.979Z,97333.28
2023-04-06T23:29:09.202Z,97340.56
2023-04-06T23:31:36.520Z,97335.34
2023-04-06T23:34:04.047Z,97337.84
2023-04-06T23:36:32.117Z,97336.63
2023-04-06T23:38:59.299Z,97335.47
2023-04-06T23:41:27.743Z,97336.06
2023-04-06T23:43:56.137Z,97332.44
2023-04-06T23:46:23.524Z,97327.66
2023-04-06T23:48:50.857Z,97324.31
2023-04-06T23:51:18.131Z,97317.41
2023-04-06T23:53:46.294Z,97319.63
2023-04-06T23:56:13.554Z,97318.44
2023-04-06T23:58:41.180Z,97317.47
